createdAt,value
2023-09-06T00:01:52.240Z,9.00
2023-09-06T00:04:29.906Z,8.60
2023-09-06T00:07:10.062Z,9.30
2023-09-06T00:09:48.266Z,9.20
2023-09-06T00:12:31.042Z,9.10
2023-09-06T00:15:16.274Z,9.00
2023-09-06T00:18:00.331Z,8.50
2023-09-06T00:20:39.747Z,10.00
2023-09-06T00:23:25.097Z,9.60
2023-09-06T00:26:03.947Z,9.60
2023-09-06T00:28:42.650Z,10.00
2023-09-06T00:31:26.963Z,9.80
2023-09-06T00:34:22.220Z,10.50
2023-09-06T00:37:13.371Z,9.80
2023-09-06T00:39:52.690Z,9.80
2023-09-06T00:42:32.607Z,9.90
2023-09-06T00:45:31.349Z,9.80
2023-09-06T00:48:11.036Z,9.30
2023-09-06T00:51:01.384Z,9.60
2023-09-06T00:53:40.001Z,10.10
2023-09-06T00:56:24.113Z,10.60
2023-09-06T00:59:03.800Z,10.00
2023-09-06T01:01:47.377Z,10.00
2023-09-06T01:04:29.892Z,9.20
2023-09-06T01:07:08.209Z,9.50
2023-09-06T01:09:53.946Z,9.70
2023-09-06T01:12:38.140Z,10.20
2023-09-06T01:15:23.226Z,9.20
2023-09-06T01:18:05.601Z,9.40
2023-09-06T01:20:55.530Z,9.80
2023-09-06T01:23:45.280Z,10.10
2023-09-06T01:26:34.378Z,9.20
2023-09-06T01:29:12.406Z,9.90
2023-09-06T01:31:57.115Z,9.40
2023-09-06T01:34:40.323Z,10.00
2023-09-06T01:37:16.357Z,9.80
2023-09-06T01:39:56.675Z,9.80
2023-09-06T01:42:40.252Z,10.30
2023-09-06T01:45:33.370Z,10.40
2023-09-06T01:48:15.217Z,9.80
2023-09-06T01:50:53.140Z,10.30
2023-09-06T01:53:31.016Z,10.40
2023-09-06T01:56:19.598Z,10.40
2023-09-06T01:59:04.329Z,9.90
2023-09-06T02:01:42.532Z,9.80
2023-09-06T02:04:21.429Z,10.40
2023-09-06T02:07:14.267Z,10.30
2023-09-06T02:09:59.788Z,9.70
2023-09-06T02:12:36.169Z,9.80
2023-09-06T02:15:21.044Z,9.90
2023-09-06T02:18:06.735Z,9.50
2023-09-06T02:20:45.013Z,10.50
2023-09-06T02:23:24.326Z,10.30
2023-09-06T02:26:05.827Z,9.70
2023-09-06T02:28:43.039Z,10.20
2023-09-06T02:31:21.411Z,10.30
2023-09-06T02:34:01.529Z,9.90
2023-09-06T02:36:42.096Z,10.40
2023-09-06T02:39:24.408Z,9.90
2023-09-06T02:42:06.949Z,9.80
2023-09-06T02:44:48.066Z,10.00
2023-09-06T02:47:49.981Z,9.90
2023-09-06T02:50:28.898Z,9.70
2023-09-06T02:53:18.650Z,10.40
2023-09-06T02:56:06.716Z,10.30
2023-09-06T02:58:44.689Z,10.60
2023-09-06T03:01:32.865Z,10.80
2023-09-06T03:04:08.439Z,10.40
2023-09-06T03:06:51.160Z,10.60
2023-09-06T03:09:37.058Z,9.90
2023-09-06T03:12:15.827Z,10.20
2023-09-06T03:14:57.528Z,10.10
2023-09-06T03:17:31.764Z,10.60
2023-09-06T03:20:34.968Z,10.30
2023-09-06T03:23:23.583Z,9.80
2023-09-06T03:26:07.203Z,10.80
2023-09-06T03:29:02.329Z,11.00
2023-09-06T03:31:57.846Z,11.00
2023-09-06T03:34:35.314Z,10.50
2023-09-06T03:37:13.984Z,10.60
2023-09-06T03:39:55.217Z,11.10
2023-09-06T03:42:33.975Z,11.00
2023-09-06T03:45:17.324Z,10.80
2023-09-06T03:47:59.139Z,11.00
2023-09-06T03:50:37.883Z,11.00
2023-09-06T03:53:16.828Z,11.20
2023-09-06T03:55:59.790Z,10.90
2023-09-06T03:58:46.809Z,12.10
2023-09-06T04:01:30.065Z,11.40
2023-09-06T04:04:12.662Z,11.70
2023-09-06T04:07:09.996Z,11.70
2023-09-06T04:09:46.489Z,11.60
2023-09-06T04:12:24.620Z,11.50
2023-09-06T04:15:02.093Z,11.60
2023-09-06T04:17:52.684Z,11.50
2023-09-06T04:20:36.649Z,11.90
2023-09-06T04:23:14.975Z,11.60
2023-09-06T04:25:59.644Z,11.80
2023-09-06T04:28:51.505Z,11.90
2023-09-06T04:31:29.123Z,12.60
2023-09-06T04:34:13.634Z,12.90
2023-09-06T04:36:51.639Z,12.80
2023-09-06T04:39:32.742Z,12.00
2023-09-06T04:42:17.025Z,12.20
2023-09-06T04:44:58.766Z,12.40
2023-09-06T04:47:39.535Z,12.40
2023-09-06T04:50:19.730Z,12.60
2023-09-06T04:52:59.861Z,12.70
2023-09-06T04:55:41.604Z,12.60
2023-09-06T04:58:19.854Z,13.70
2023-09-06T05:01:08.155Z,13.00
2023-09-06T05:03:43.531Z,12.50
2023-09-06T05:06:27.585Z,12.00
2023-09-06T05:09:06.893Z,13.10
2023-09-06T05:11:48.472Z,13.10
2023-09-06T05:14:31.383Z,13.80
2023-09-06T05:17:20.389Z,13.00
2023-09-06T05:19:58.261Z,13.50
2023-09-06T05:22:50.766Z,12.90
2023-09-06T05:25:31.950Z,13.00
2023-09-06T05:28:13.989Z,12.70
2023-09-06T05:30:59.211Z,13.00
2023-09-06T05:33:50.877Z,12.60
2023-09-06T05:36:26.283Z,12.40
2023-09-06T05:39:03.160Z,13.80
2023-09-06T05:41:48.221Z,13.00
2023-09-06T05:44:44.787Z,12.70
2023-09-06T05:47:23.690Z,13.20
2023-09-06T05:50:01.416Z,13.30
2023-09-06T05:52:38.819Z,13.20
2023-09-06T05:55:16.475Z,12.90
2023-09-06T05:57:54.065Z,13.30
2023-09-06T06:00:37.235Z,14.10
2023-09-06T06:03:13.398Z,13.40
2023-09-06T06:05:53.024Z,13.40
2023-09-06T06:08:32.658Z,13.90
2023-09-06T06:11:15.578Z,13.50
2023-09-06T06:14:13.269Z,16.10
2023-09-06T06:16:51.567Z,15.50
2023-09-06T06:19:36.423Z,14.30
2023-09-06T06:22:14.698Z,13.80
2023-09-06T06:24:55.169Z,13.70
2023-09-06T06:27:33.635Z,14.10
2023-09-06T06:30:13.179Z,13.70
2023-09-06T06:32:59.424Z,13.10
2023-09-06T06:35:37.964Z,14.00
2023-09-06T06:38:21.838Z,13.50
2023-09-06T06:40:58.763Z,12.70
2023-09-06T06:43:35.730Z,14.20
2023-09-06T06:46:35.582Z,13.40
2023-09-06T06:49:19.245Z,12.90
2023-09-06T06:51:56.830Z,12.40
2023-09-06T06:54:33.064Z,12.50
2023-09-06T06:57:26.242Z,13.20
2023-09-06T07:00:12.595Z,12.60
2023-09-06T07:02:52.787Z,12.10
2023-09-06T07:05:31.848Z,12.10
2023-09-06T07:08:09.352Z,12.90
2023-09-06T07:10:50.863Z,11.80
2023-09-06T07:13:31.098Z,12.00
2023-09-06T07:16:08.252Z,12.40
2023-09-06T07:18:47.851Z,12.20
2023-09-06T07:21:23.366Z,13.60
2023-09-06T07:24:02.719Z,12.90
2023-09-06T07:26:54.328Z,13.00
2023-09-06T07:29:29.648Z,12.00
2023-09-06T07:32:10.854Z,12.10
2023-09-06T07:34:49.250Z,11.30
2023-09-06T07:37:42.690Z,11.00
2023-09-06T07:40:17.284Z,10.20
2023-09-06T07:43:18.412Z,10.50
2023-09-06T07:45:54.054Z,9.90
2023-09-06T07:48:45.425Z,9.80
2023-09-06T07:51:28.309Z,10.10
2023-09-06T07:54:07.884Z,9.90
2023-09-06T07:56:50.750Z,10.50
2023-09-06T07:59:29.196Z,10.00
2023-09-06T08:02:09.187Z,9.10
2023-09-06T08:04:48.563Z,12.40
2023-09-06T08:07:27.278Z,8.60
2023-09-06T08:10:10.573Z,8.40
2023-09-06T08:12:51.304Z,8.70
2023-09-06T08:15:46.057Z,8.90
2023-09-06T08:18:35.595Z,8.40
2023-09-06T08:21:13.836Z,9.00
2023-09-06T08:23:54.368Z,8.20
2023-09-06T08:26:39.413Z,9.00
2023-09-06T08:29:20.553Z,8.50
2023-09-06T08:31:59.549Z,8.30
2023-09-06T08:34:40.331Z,8.30
2023-09-06T08:37:20.346Z,8.00
2023-09-06T08:39:56.005Z,7.60
2023-09-06T08:42:39.094Z,10.20
2023-09-06T08:45:23.486Z,8.50
2023-09-06T08:48:04.609Z,8.20
2023-09-06T08:50:46.144Z,7.60
2023-09-06T08:53:26.763Z,7.90
2023-09-06T08:56:11.438Z,10.60
2023-09-06T08:59:00.348Z,7.30
2023-09-06T09:01:39.555Z,8.00
2023-09-06T09:04:18.757Z,7.30
2023-09-06T09:06:59.604Z,7.70
2023-09-06T09:10:00.912Z,7.20
2023-09-06T09:12:38.092Z,7.20
2023-09-06T09:15:37.679Z,7.30
2023-09-06T09:18:17.625Z,6.80
2023-09-06T09:21:04.538Z,7.40
2023-09-06T09:23:57.520Z,6.60
2023-09-06T09:26:43.173Z,6.20
2023-09-06T09:29:20.308Z,6.70
2023-09-06T09:32:08.404Z,7.00
2023-09-06T09:34:44.664Z,7.00
2023-09-06T09:37:24.679Z,7.00
2023-09-06T09:40:37.784Z,6.50
2023-09-06T09:43:24.382Z,4.80
2023-09-06T09:46:08.346Z,5.70
2023-09-06T09:48:48.266Z,5.30
2023-09-06T09:51:34.456Z,5.80
2023-09-06T09:54:15.651Z,5.10
2023-09-06T09:57:11.696Z,6.70
2023-09-06T09:59:48.815Z,5.20
2023-09-06T10:02:40.103Z,5.20
2023-09-06T10:05:23.544Z,5.60
2023-09-06T10:08:04.314Z,5.70
2023-09-06T10:10:46.320Z,5.20
2023-09-06T10:13:30.479Z,13.80
2023-09-06T10:16:09.948Z,5.60
2023-09-06T10:18:52.404Z,5.50
2023-09-06T10:21:35.685Z,6.10
2023-09-06T10:24:22.922Z,5.10
2023-09-06T10:27:09.861Z,5.80
2023-09-06T10:30:05.029Z,5.10
2023-09-06T10:32:51.966Z,7.30
2023-09-06T10:35:34.833Z,4.70
2023-09-06T10:38:17.764Z,4.80
2023-09-06T10:41:15.003Z,5.20
2023-09-06T10:44:31.535Z,4.50
2023-09-06T10:47:36.738Z,5.30
2023-09-06T10:50:15.315Z,5.30
2023-09-06T10:52:55.679Z,4.90
2023-09-06T10:55:50.744Z,15.10
2023-09-06T10:58:46.943Z,5.30
2023-09-06T11:01:26.129Z,5.40
2023-09-06T11:04:15.918Z,4.70
2023-09-06T11:07:01.732Z,4.70
2023-09-06T11:09:47.924Z,5.00
2023-09-06T11:12:25.139Z,4.90
2023-09-06T11:15:05.473Z,4.80
2023-09-06T11:17:47.933Z,4.80
2023-09-06T11:20:27.845Z,5.00
2023-09-06T11:23:07.569Z,7.40
2023-09-06T11:25:44.781Z,4.70
2023-09-06T11:28:30.796Z,4.60
2023-09-06T11:31:23.956Z,4.20
2023-09-06T11:34:06.345Z,5.10
2023-09-06T11:36:44.257Z,4.80
2023-09-06T11:39:40.027Z,4.70
2023-09-06T11:42:21.951Z,4.70
2023-09-06T11:45:01.821Z,18.40
2023-09-06T11:47:41.272Z,8.20
2023-09-06T11:50:22.415Z,6.10
2023-09-06T11:53:06.055Z,4.40
2023-09-06T11:56:02.276Z,4.50
2023-09-06T11:58:50.997Z,4.30
2023-09-06T12:01:30.898Z,4.10
2023-09-06T12:04:09.052Z,4.50
2023-09-06T12:06:47.409Z,4.20
2023-09-06T12:09:25.068Z,4.20
2023-09-06T12:12:01.417Z,4.00
2023-09-06T12:14:41.570Z,4.60
2023-09-06T12:17:21.418Z,3.60
2023-09-06T12:20:36.024Z,4.10
2023-09-06T12:23:15.132Z,3.90
2023-09-06T12:25:52.499Z,6.30
2023-09-06T12:28:29.417Z,3.90
2023-09-06T12:31:17.129Z,4.40
2023-09-06T12:33:55.229Z,3.60
2023-09-06T12:36:38.786Z,3.60
2023-09-06T12:39:16.810Z,3.00
2023-09-06T12:41:51.578Z,2.80
2023-09-06T12:44:28.872Z,3.40
2023-09-06T12:47:08.040Z,3.30
2023-09-06T12:49:44.217Z,3.40
2023-09-06T12:52:23.115Z,3.40
2023-09-06T12:54:59.742Z,2.80
2023-09-06T12:57:47.832Z,3.70
2023-09-06T13:00:24.692Z,3.20
2023-09-06T13:03:06.925Z,20.70
2023-09-06T13:05:45.382Z,4.10
2023-09-06T13:08:24.463Z,3.40
2023-09-06T13:11:02.506Z,2.90
2023-09-06T13:13:40.605Z,3.00
2023-09-06T13:16:21.029Z,3.30
2023-09-06T13:18:58.772Z,3.10
2023-09-06T13:21:35.950Z,2.60
2023-09-06T13:24:17.954Z,2.70
2023-09-06T13:26:59.170Z,2.40
2023-09-06T13:29:41.656Z,5.90
2023-09-06T13:32:19.845Z,2.60
2023-09-06T13:34:58.455Z,3.90
2023-09-06T13:37:33.928Z,2.90
2023-09-06T13:40:11.313Z,2.70
2023-09-06T13:42:49.862Z,2.70
2023-09-06T13:45:24.872Z,2.60
2023-09-06T13:48:03.011Z,2.70
2023-09-06T13:50:42.209Z,2.80
2023-09-06T13:53:19.054Z,3.00
2023-09-06T13:56:10.599Z,2.90
2023-09-06T13:58:46.056Z,2.80
2023-09-06T14:01:29.707Z,8.70
2023-09-06T14:04:03.344Z,3.20
2023-09-06T14:06:42.206Z,3.30
2023-09-06T14:09:21.067Z,3.40
2023-09-06T14:12:01.962Z,2.90
2023-09-06T14:14:41.755Z,3.10
2023-09-06T14:17:19.681Z,3.00
2023-09-06T14:19:57.212Z,2.90
2023-09-06T14:22:34.914Z,3.00
2023-09-06T14:25:13.580Z,3.10
2023-09-06T14:27:50.411Z,4.20
2023-09-06T14:30:29.165Z,3.60
2023-09-06T14:33:07.269Z,3.30
2023-09-06T14:35:48.350Z,3.20
2023-09-06T14:38:25.303Z,3.30
2023-09-06T14:41:00.137Z,3.20
2023-09-06T14:43:39.758Z,2.80
2023-09-06T14:46:16.758Z,3.20
2023-09-06T14:48:53.226Z,2.80
2023-09-06T14:51:29.104Z,3.10
2023-09-06T14:54:11.770Z,6.30
2023-09-06T14:56:51.198Z,3.70
2023-09-06T14:59:35.268Z,3.20
2023-09-06T15:02:16.407Z,3.40
2023-09-06T15:04:58.824Z,3.50
2023-09-06T15:07:34.220Z,3.80
2023-09-06T15:10:15.071Z,3.40
2023-09-06T15:12:55.531Z,3.20
2023-09-06T15:15:36.293Z,3.30
2023-09-06T15:18:12.272Z,2.80
2023-09-06T15:20:47.236Z,2.90
2023-09-06T15:23:27.305Z,2.80
2023-09-06T15:26:06.346Z,3.10
2023-09-06T15:28:40.793Z,2.60
2023-09-06T15:31:20.107Z,2.60
2023-09-06T15:33:56.658Z,2.60
2023-09-06T15:36:32.611Z,2.60
2023-09-06T15:39:11.458Z,3.10
2023-09-06T15:41:51.064Z,3.10
2023-09-06T15:44:25.883Z,2.80
2023-09-06T15:47:03.038Z,2.60
2023-09-06T15:49:40.233Z,2.30
2023-09-06T15:52:15.762Z,2.50
2023-09-06T15:54:56.882Z,2.20
2023-09-06T15:57:34.741Z,4.00
2023-09-06T16:00:31.474Z,2.80
2023-09-06T16:03:15.165Z,2.40
2023-09-06T16:05:51.415Z,3.20
2023-09-06T16:08:28.341Z,2.30
2023-09-06T16:11:05.849Z,2.60
2023-09-06T16:13:47.084Z,2.50
2023-09-06T16:16:23.952Z,2.70
2023-09-06T16:18:58.572Z,2.40
2023-09-06T16:21:36.516Z,2.50
2023-09-06T16:24:13.242Z,2.30
2023-09-06T16:26:48.574Z,3.10
2023-09-06T16:29:28.863Z,2.80
2023-09-06T16:32:11.708Z,2.70
2023-09-06T16:34:46.813Z,2.60
2023-09-06T16:37:25.716Z,2.70
2023-09-06T16:40:03.855Z,3.00
2023-09-06T16:42:54.884Z,3.10
2023-09-06T16:45:32.787Z,2.70
2023-09-06T16:48:14.193Z,2.50
2023-09-06T16:50:54.452Z,2.70
2023-09-06T16:53:30.609Z,2.80
2023-09-06T16:56:06.392Z,2.70
2023-09-06T16:58:43.223Z,2.70
2023-09-06T17:01:19.472Z,3.20
2023-09-06T17:03:58.566Z,3.20
2023-09-06T17:06:41.043Z,3.30
2023-09-06T17:09:27.501Z,3.50
2023-09-06T17:12:06.703Z,10.30
2023-09-06T17:14:52.687Z,29.40
2023-09-06T17:17:30.176Z,10.70
2023-09-06T17:20:18.536Z,7.70
2023-09-06T17:23:00.303Z,6.50
2023-09-06T17:25:41.525Z,7.00
2023-09-06T17:28:17.468Z,6.70
2023-09-06T17:30:58.373Z,6.00
2023-09-06T17:33:53.355Z,7.40
2023-09-06T17:36:31.318Z,5.90
2023-09-06T17:39:13.612Z,5.20
2023-09-06T17:41:51.405Z,5.30
2023-09-06T17:44:33.171Z,4.70
2023-09-06T17:47:14.426Z,4.40
2023-09-06T17:49:54.426Z,5.30
2023-09-06T17:52:34.731Z,5.60
2023-09-06T17:55:15.359Z,5.40
2023-09-06T17:57:51.466Z,5.60
2023-09-06T18:00:31.285Z,5.80
2023-09-06T18:03:14.654Z,5.20
2023-09-06T18:05:56.794Z,5.20
2023-09-06T18:08:36.794Z,6.00
2023-09-06T18:11:15.032Z,5.80
2023-09-06T18:13:59.616Z,5.60
2023-09-06T18:16:42.898Z,7.00
2023-09-06T18:19:26.955Z,7.40
2023-09-06T18:22:07.145Z,7.30
2023-09-06T18:24:47.396Z,7.40
2023-09-06T18:27:32.531Z,7.90
2023-09-06T18:30:19.957Z,7.20
2023-09-06T18:33:21.024Z,7.00
2023-09-06T18:35:58.527Z,7.50
2023-09-06T18:38:54.851Z,7.80
2023-09-06T18:41:31.395Z,6.60
2023-09-06T18:44:13.009Z,14.50
2023-09-06T18:46:48.103Z,14.80
2023-09-06T18:49:24.301Z,11.20
2023-09-06T18:52:05.718Z,10.30
2023-09-06T18:54:43.308Z,8.70
2023-09-06T18:57:22.422Z,10.30
2023-09-06T19:00:11.229Z,9.50
2023-09-06T19:02:46.328Z,9.40
2023-09-06T19:05:40.510Z,9.20
2023-09-06T19:08:25.398Z,9.30
2023-09-06T19:11:21.429Z,16.00
2023-09-06T19:13:59.467Z,11.00
2023-09-06T19:16:40.217Z,10.30
2023-09-06T19:19:19.441Z,9.00
2023-09-06T19:21:57.408Z,9.60
2023-09-06T19:24:37.366Z,8.40
2023-09-06T19:27:18.411Z,8.00
2023-09-06T19:29:57.995Z,8.70
2023-09-06T19:32:38.908Z,6.90
2023-09-06T19:35:16.008Z,7.50
2023-09-06T19:37:51.670Z,7.30
2023-09-06T19:40:52.157Z,7.20
2023-09-06T19:43:27.220Z,7.60
2023-09-06T19:46:10.706Z,8.70
2023-09-06T19:49:05.593Z,11.30
2023-09-06T19:51:45.271Z,11.90
2023-09-06T19:54:24.510Z,9.80
2023-09-06T19:57:00.346Z,10.20
2023-09-06T19:59:35.774Z,9.90
2023-09-06T20:02:13.490Z,9.80
2023-09-06T20:04:51.516Z,9.90
2023-09-06T20:07:35.370Z,9.30
2023-09-06T20:10:12.823Z,9.20
2023-09-06T20:12:52.052Z,8.10
2023-09-06T20:15:29.206Z,8.30
2023-09-06T20:18:08.681Z,7.80
2023-09-06T20:20:46.523Z,7.90
2023-09-06T20:23:32.575Z,7.90
2023-09-06T20:26:09.510Z,7.50
2023-09-06T20:28:45.496Z,6.70
2023-09-06T20:31:21.737Z,6.90
2023-09-06T20:33:56.421Z,7.20
2023-09-06T20:36:33.194Z,7.30
2023-09-06T20:39:15.825Z,7.30
2023-09-06T20:41:52.932Z,6.70
2023-09-06T20:44:27.289Z,7.40
2023-09-06T20:47:05.983Z,6.90
2023-09-06T20:49:45.304Z,7.10
2023-09-06T20:52:25.080Z,6.80
2023-09-06T20:55:06.926Z,6.70
2023-09-06T20:57:47.020Z,6.10
2023-09-06T21:00:27.864Z,6.10
2023-09-06T21:03:03.725Z,6.80
2023-09-06T21:05:39.686Z,6.40
2023-09-06T21:08:15.840Z,6.10
2023-09-06T21:10:51.260Z,6.00
2023-09-06T21:13:29.068Z,5.30
2023-09-06T21:16:09.326Z,5.30
2023-09-06T21:18:45.680Z,5.20
2023-09-06T21:21:21.881Z,5.40
2023-09-06T21:24:05.390Z,5.20
2023-09-06T21:26:42.115Z,5.10
2023-09-06T21:29:28.765Z,5.00
2023-09-06T21:32:07.673Z,5.00
2023-09-06T21:34:43.590Z,5.30
2023-09-06T21:37:19.288Z,5.10
2023-09-06T21:39:57.258Z,5.20
2023-09-06T21:42:35.133Z,5.40
2023-09-06T21:45:15.589Z,5.50
2023-09-06T21:48:00.338Z,5.00
2023-09-06T21:50:38.856Z,4.90
2023-09-06T21:53:16.701Z,5.30
2023-09-06T21:55:54.778Z,5.20
2023-09-06T21:58:35.189Z,5.20
2023-09-06T22:01:29.650Z,5.30
2023-09-06T22:04:26.716Z,5.50
2023-09-06T22:07:23.070Z,4.90
2023-09-06T22:10:22.060Z,5.20
2023-09-06T22:13:19.971Z,4.90
2023-09-06T22:15:56.857Z,5.00
2023-09-06T22:18:33.837Z,5.10
2023-09-06T22:21:11.506Z,5.30
2023-09-06T22:23:48.021Z,5.80
2023-09-06T22:26:27.699Z,5.30
2023-09-06T22:29:11.498Z,5.50
2023-09-06T22:31:47.549Z,6.10
2023-09-06T22:34:29.073Z,6.20
2023-09-06T22:37:05.957Z,6.20
2023-09-06T22:39:44.091Z,6.10
2023-09-06T22:42:26.388Z,6.10
2023-09-06T22:45:03.745Z,5.70
2023-09-06T22:47:49.215Z,6.10
2023-09-06T22:50:28.147Z,5.80
2023-09-06T22:53:16.243Z,5.50
2023-09-06T22:55:50.937Z,5.60
2023-09-06T22:58:29.260Z,5.30
2023-09-06T23:01:13.476Z,5.30
2023-09-06T23:03:51.306Z,5.40
2023-09-06T23:06:28.880Z,5.00
2023-09-06T23:09:08.756Z,5.00
2023-09-06T23:11:53.743Z,5.00
2023-09-06T23:14:45.228Z,5.00
2023-09-06T23:17:24.806Z,5.10
2023-09-06T23:20:13.658Z,4.90
2023-09-06T23:22:55.391Z,4.70
2023-09-06T23:25:38.108Z,4.90
2023-09-06T23:28:24.735Z,5.00
2023-09-06T23:31:07.701Z,5.00
2023-09-06T23:33:51.510Z,4.90
2023-09-06T23:36:30.222Z,4.70
2023-09-06T23:39:23.554Z,4.70
2023-09-06T23:42:11.898Z,4.90
2023-09-06T23:44:48.101Z,5.00
2023-09-06T23:47:23.427Z,5.00
2023-09-06T23:50:00.137Z,5.10
2023-09-06T23:52:36.747Z,5.00
2023-09-06T23:55:15.347Z,5.20
2023-09-06T23:57:54.088Z,4.70
